Time;durP1;ratioP1;P1;durP2;ratioP2;P2;SDS_P1;SDS_P2;PMS_P1;PMS_P2;Temp;Humidity;BMP_temperature;BMP_pressure;BME280_temperature;BME280_humidity;BME280_pressure;Samples;Min_cycle;Max_cycle;Signal;HPM_P1;HPM_P2
2022/04/07 00:00:37;;;;;;;4.00;2.58;;;;;;;10.14;65.26;94909.06;5086448;28;20543;-78
2022/04/07 00:03:04;;;;;;;2.92;1.90;;;;;;;10.05;65.61;94903.78;5086498;28;20040;-76
2022/04/07 00:05:30;;;;;;;5.53;2.13;;;;;;;10.00;65.26;94898.59;5086558;28;20059;-77
2022/04/07 00:07:57;;;;;;;3.67;2.22;;;;;;;10.07;65.23;94904.19;5086743;28;20048;-76
2022/04/07 00:10:23;;;;;;;3.55;2.20;;;;;;;9.99;65.23;94899.72;5085633;28;20055;-77
2022/04/07 00:12:50;;;;;;;3.05;2.20;;;;;;;9.96;66.00;94897.69;5087516;28;20503;-77
2022/04/07 00:15:18;;;;;;;2.53;1.65;;;;;;;10.01;65.49;94894.72;5085885;28;20044;-76
2022/04/07 00:17:44;;;;;;;4.03;2.40;;;;;;;9.96;65.64;94891.47;5086986;28;20074;-78
2022/04/07 00:20:11;;;;;;;3.45;2.13;;;;;;;9.98;65.42;94890.00;5085406;28;20070;-77
2022/04/07 00:22:39;;;;;;;5.50;3.10;;;;;;;10.06;64.64;94880.88;5086347;28;20051;-77
2022/04/07 00:25:06;;;;;;;3.55;2.05;;;;;;;10.14;64.64;94877.19;5085831;28;20422;-77
2022/04/07 00:27:33;;;;;;;3.63;2.60;;;;;;;10.11;64.32;94886.03;5085998;28;20063;-76
2022/04/07 00:29:59;;;;;;;3.30;1.98;;;;;;;10.06;64.76;94880.88;5086436;28;20059;-76
2022/04/07 00:32:27;;;;;;;3.92;2.85;;;;;;;10.08;64.71;94883.25;5085570;28;20051;-77
2022/04/07 00:34:54;;;;;;;4.00;1.85;;;;;;;10.08;64.62;94889.50;5086780;28;20080;-77
2022/04/07 00:37:23;;;;;;;3.28;2.08;;;;;;;10.11;64.36;94888.78;5085382;28;20052;-76
2022/04/07 00:39:49;;;;;;;4.82;2.20;;;;;;;9.96;65.10;94891.47;5086489;28;20090;-76
2022/04/07 00:42:16;;;;;;;2.88;2.05;;;;;;;9.92;65.31;94885.97;5085713;28;20044;-78
2022/04/07 00:44:43;;;;;;;4.25;2.38;;;;;;;10.00;65.00;94879.56;5086549;28;20044;-77
2022/04/07 00:47:09;;;;;;;3.17;1.52;;;;;;;9.97;65.07;94882.16;5085502;28;20059;-76
2022/04/07 00:49:37;;;;;;;3.30;2.33;;;;;;;10.02;65.24;94879.19;5086440;28;20434;-77
2022/04/07 00:52:05;;;;;;;2.88;1.98;;;;;;;10.06;64.98;94882.81;5085833;28;20048;-76
2022/04/07 00:54:32;;;;;;;3.47;2.53;;;;;;;10.06;64.79;94880.88;5085938;28;20056;-75
2022/04/07 00:57:00;;;;;;;4.22;2.10;;;;;;;10.00;64.76;94871.41;5086550;28;20275;-75
2022/04/07 00:59:28;;;;;;;5.72;2.22;;;;;;;10.13;64.60;94881.06;5085465;28;20055;-78
2022/04/07 01:01:55;;;;;;;2.60;1.88;;;;;;;10.24;64.71;94869.69;5086499;28;20055;-76
2022/04/07 01:04:22;;;;;;;2.92;1.85;;;;;;;10.31;63.88;94869.84;5085256;28;20048;-76
2022/04/07 01:06:52;;;;;;;2.72;2.10;;;;;;;10.36;63.91;94864.16;5086721;28;20055;-76
2022/04/07 01:09:19;;;;;;;3.70;1.90;;;;;;;10.37;64.14;94863.00;5085320;28;20055;-76
2022/04/07 01:11:46;;;;;;;4.13;2.75;;;;;;;10.27;65.19;94863.53;5085478;28;20047;-78
2022/04/07 01:14:13;;;;;;;3.60;1.65;;;;;;;10.30;64.98;94862.84;5086063;28;20048;-78
2022/04/07 01:16:40;;;;;;;3.65;2.13;;;;;;;10.24;65.34;94866.97;5085838;28;20052;-77
2022/04/07 01:19:06;;;;;;;2.78;1.98;;;;;;;10.23;65.42;94863.41;5085885;28;20139;-77
2022/04/07 01:21:35;;;;;;;4.93;2.72;;;;;;;10.10;65.72;94859.22;5084971;28;20048;-77
2022/04/07 01:24:04;;;;;;;3.17;2.28;;;;;;;10.05;66.31;94860.25;5086729;28;20059;-77
2022/04/07 01:26:38;;;;;;;4.40;2.38;;;;;;;9.95;66.80;94858.06;5085259;28;20048;-77
2022/04/07 01:29:05;;;;;;;3.78;2.80;;;;;;;9.93;66.79;94854.91;5085884;28;20113;-80
2022/04/07 01:31:32;;;;;;;3.45;2.50;;;;;;;9.80;67.32;94851.47;5085141;28;20073;-77
2022/04/07 01:34:00;;;;;;;3.95;2.47;;;;;;;9.83;67.67;94847.28;5086003;28;20117;-78
2022/04/07 01:36:29;;;;;;;4.75;2.15;;;;;;;9.87;67.41;94850.88;5085454;28;20043;-75
2022/04/07 01:38:56;;;;;;;3.58;2.53;;;;;;;9.80;68.21;94850.69;5088151;28;20059;-78
2022/04/07 01:41:24;;;;;;;3.92;2.05;;;;;;;9.73;68.60;94848.56;5088753;28;20063;-77
2022/04/07 01:43:55;;;;;;;4.25;2.42;;;;;;;9.79;68.67;94838.22;5103614;28;20802;-78
2022/04/07 01:46:23;;;;;;;3.50;2.20;;;;;;;9.80;68.67;94837.09;5109923;28;20055;-78
2022/04/07 01:48:51;;;;;;;4.07;2.40;;;;;;;9.80;68.62;94839.81;5109148;28;20059;-78
2022/04/07 01:51:19;;;;;;;4.55;2.83;;;;;;;9.73;69.17;94837.69;5109176;28;20081;-78
2022/04/07 01:53:47;;;;;;;3.95;2.42;;;;;;;9.65;69.38;94828.56;5109116;28;20043;-77
2022/04/07 01:56:13;;;;;;;3.83;2.10;;;;;;;9.61;69.68;94838.56;5108843;28;20715;-78
2022/04/07 01:58:40;;;;;;;4.03;2.42;;;;;;;9.58;69.72;94831.09;5109136;28;20052;-78
2022/04/07 02:01:08;;;;;;;4.70;2.42;;;;;;;9.63;69.84;94840.94;5108977;28;20051;-78
2022/04/07 02:03:35;;;;;;;3.83;2.10;;;;;;;9.60;70.40;94836.19;5109804;28;20131;-75
2022/04/07 02:06:12;;;;;;;5.95;3.00;;;;;;;9.60;70.44;94836.97;5108765;28;20133;-75
2022/04/07 02:08:38;;;;;;;4.55;2.72;;;;;;;9.58;70.63;94839.25;5109387;28;20090;-79
2022/04/07 02:11:06;;;;;;;4.07;2.47;;;;;;;9.59;70.66;94835.38;5107541;28;20450;-76
2022/04/07 02:13:33;;;;;;;4.78;3.03;;;;;;;9.60;70.80;94838.91;5108838;28;20134;-76
2022/04/07 02:16:00;;;;;;;5.15;2.60;;;;;;;9.57;71.12;94831.47;5108303;28;20662;-76
2022/04/07 02:18:28;;;;;;;3.47;2.40;;;;;;;9.64;71.35;94834.34;5108179;28;20047;-76
2022/04/07 02:20:54;;;;;;;3.83;2.40;;;;;;;9.60;71.59;94831.53;5108257;28;20048;-78
2022/04/07 02:23:21;;;;;;;3.95;2.60;;;;;;;9.66;71.18;94841.03;5107662;28;20051;-78
2022/04/07 02:25:47;;;;;;;3.97;2.50;;;;;;;9.67;71.34;94836.38;5108663;28;20082;-76
2022/04/07 02:28:13;;;;;;;3.63;2.30;;;;;;;9.75;70.85;94826.47;5107696;28;20055;-76
2022/04/07 02:30:40;;;;;;;4.75;2.60;;;;;;;9.81;70.66;94835.94;5108820;28;20059;-76
2022/04/07 02:33:07;;;;;;;4.20;2.10;;;;;;;9.76;70.64;94837.00;5107429;28;20500;-75
2022/04/07 02:35:34;;;;;;;5.68;2.45;;;;;;;9.76;70.94;94828.03;5108988;28;20067;-76
2022/04/07 02:38:01;;;;;;;3.17;2.22;;;;;;;9.75;71.08;94829.19;5108154;28;20063;-76
2022/04/07 02:40:28;;;;;;;3.55;2.55;;;;;;;9.70;71.09;94824.00;5107820;28;20044;-76
2022/04/07 02:42:54;;;;;;;1.38;1.23;;;;;;;9.60;71.45;94820.66;5108214;28;20054;-76
2022/04/07 02:45:21;;;;;;;2.10;1.60;;;;;;;9.65;71.21;94825.06;5107915;28;20051;-76
2022/04/07 02:47:47;;;;;;;3.78;1.70;;;;;;;9.70;71.52;94824.00;5108955;28;20047;-76
2022/04/07 02:50:14;;;;;;;2.17;1.65;;;;;;;9.71;70.78;94825.59;5106975;28;20497;-76
2022/04/07 02:52:41;;;;;;;1.75;1.30;;;;;;;9.77;70.57;94818.78;5108963;28;20086;-76
2022/04/07 02:55:08;;;;;;;2.53;1.70;;;;;;;9.78;70.41;94820.34;5107171;28;20047;-76
2022/04/07 02:57:35;;;;;;;4.72;1.90;;;;;;;9.77;70.35;94816.06;5108770;28;20047;-76
2022/04/07 03:00:03;;;;;;;2.28;1.55;;;;;;;9.80;70.12;94812.63;5107233;28;20043;-75
2022/04/07 03:02:29;;;;;;;2.95;2.40;;;;;;;9.82;69.95;94815.78;5108252;28;20086;-76
2022/04/07 03:04:56;;;;;;;4.75;1.70;;;;;;;9.81;70.33;94825.84;5107837;28;20050;-75
2022/04/07 03:07:24;;;;;;;2.58;1.70;;;;;;;9.83;70.48;94817.38;5107591;28;20047;-76
2022/04/07 03:09:51;;;;;;;2.33;1.70;;;;;;;9.85;70.28;94815.06;5107832;28;20157;-78
2022/04/07 03:12:18;;;;;;;2.33;1.65;;;;;;;9.93;70.02;94811.41;5106813;28;20054;-75
2022/04/07 03:14:45;;;;;;;2.38;1.60;;;;;;;9.95;69.82;94809.13;5108205;28;20121;-77
2022/04/07 03:17:12;;;;;;;2.28;1.70;;;;;;;9.96;69.86;94805.25;5106495;28;20047;-76
2022/04/07 03:19:38;;;;;;;1.90;1.52;;;;;;;10.09;69.64;94811.41;5108454;28;20051;-76
2022/04/07 03:22:05;;;;;;;2.67;1.67;;;;;;;10.07;69.36;94797.34;5106415;28;20055;-76
2022/04/07 03:24:31;;;;;;;2.10;1.58;;;;;;;10.14;68.97;94801.03;5108397;28;20054;-77
2022/04/07 03:26:59;;;;;;;2.92;1.58;;;;;;;10.02;69.60;94798.41;5107443;28;20134;-76
2022/04/07 03:29:28;;;;;;;2.65;1.90;;;;;;;10.00;69.90;94806.13;5107234;28;20043;-78
2022/04/07 03:31:54;;;;;;;2.28;1.60;;;;;;;9.95;70.06;94806.41;5107248;28;20046;-76
2022/04/07 03:34:20;;;;;;;2.17;1.63;;;;;;;9.92;70.02;94805.19;5106899;28;20637;-75
2022/04/07 03:36:47;;;;;;;2.30;1.55;;;;;;;9.84;70.25;94792.53;5107564;28;20427;-75
2022/04/07 03:39:14;;;;;;;2.65;2.13;;;;;;;9.98;70.18;94804.91;5106670;28;20044;-76
2022/04/07 03:41:40;;;;;;;2.10;1.60;;;;;;;9.82;70.62;94799.47;5113933;27;20070;-76
2022/04/07 03:44:09;;;;;;;2.50;1.48;;;;;;;9.85;70.60;94799.56;5126984;27;20070;-76
2022/04/07 03:46:36;;;;;;;2.33;1.63;;;;;;;9.79;70.89;94792.00;5128476;27;20051;-75
2022/04/07 03:49:03;;;;;;;2.38;1.42;;;;;;;9.75;70.72;94799.28;5127108;27;20051;-75
2022/04/07 03:51:29;;;;;;;3.95;1.80;;;;;;;9.67;71.01;94790.97;5127517;27;20064;-76
2022/04/07 03:53:56;;;;;;;3.88;1.75;;;;;;;9.56;71.23;94791.84;5127311;27;20051;-76
2022/04/07 03:56:22;;;;;;;2.20;1.73;;;;;;;9.51;71.38;94790.16;5127329;27;20054;-76
2022/04/07 03:58:49;;;;;;;2.35;1.70;;;;;;;9.49;71.66;94795.13;5127931;27;20051;-75
2022/04/07 04:01:17;;;;;;;2.40;1.40;;;;;;;9.58;71.34;94790.34;5125510;27;20047;-76
2022/04/07 04:03:44;;;;;;;2.40;1.63;;;;;;;9.62;71.01;94779.56;5128174;27;20043;-75
2022/04/07 04:06:11;;;;;;;2.00;1.70;;;;;;;9.55;70.97;94780.19;5126514;27;20058;-77
2022/04/07 04:08:37;;;;;;;2.28;1.45;;;;;;;9.51;70.59;94790.16;5128161;27;20474;-76
2022/04/07 04:11:04;;;;;;;1.63;1.15;;;;;;;9.59;70.22;94786.47;5119695;27;20120;-76
2022/04/07 04:13:31;;;;;;;2.42;1.80;;;;;;;9.41;71.20;94779.81;5107384;28;20047;-75
2022/04/07 04:15:58;;;;;;;2.50;1.40;;;;;;;9.29;71.26;94777.97;5106503;28;20520;-76
2022/04/07 04:18:26;;;;;;;2.33;1.58;;;;;;;9.14;71.75;94774.06;5106648;28;20067;-76
2022/04/07 04:20:52;;;;;;;2.42;1.80;;;;;;;9.07;71.74;94787.44;5105952;28;20055;-76
2022/04/07 04:23:19;;;;;;;2.65;1.48;;;;;;;9.03;71.94;94789.28;5106010;28;20604;-76
2022/04/07 04:25:47;;;;;;;3.22;1.30;;;;;;;9.01;72.09;94788.81;5106993;28;20055;-76
2022/04/07 04:28:13;;;;;;;2.30;1.50;;;;;;;8.98;72.00;94794.97;5105863;28;20078;-77
2022/04/07 04:30:40;;;;;;;3.10;1.58;;;;;;;8.91;71.51;94808.31;5106698;28;20494;-77
2022/04/07 04:33:06;;;;;;;2.20;1.30;;;;;;;8.90;71.44;94787.72;5105584;28;20418;-75
2022/04/07 04:35:34;;;;;;;2.08;1.33;;;;;;;8.79;71.96;94797.50;5107032;28;20055;-76
2022/04/07 04:38:01;;;;;;;1.90;1.40;;;;;;;8.77;71.53;94795.16;5106143;28;20498;-76
2022/04/07 04:40:27;;;;;;;2.03;1.50;;;;;;;8.81;71.39;94811.50;5105821;27;20043;-76
2022/04/07 04:42:54;;;;;;;3.78;1.20;;;;;;;8.76;71.36;94803.59;5125416;28;20051;-75
2022/04/07 04:45:20;;;;;;;2.17;1.58;;;;;;;8.75;71.13;94796.59;5126189;27;20047;-76
2022/04/07 04:47:47;;;;;;;1.20;1.00;;;;;;;8.71;70.85;94801.13;5127150;27;20054;-76
2022/04/07 04:50:14;;;;;;;1.67;1.40;;;;;;;8.85;70.77;94809.69;5125610;27;20125;-76
2022/04/07 04:52:41;;;;;;;1.20;1.10;;;;;;;8.72;70.06;94806.25;5127179;27;20120;-76
2022/04/07 04:55:08;;;;;;;3.45;1.25;;;;;;;8.67;70.49;94811.13;5124996;27;20050;-76
2022/04/07 04:57:34;;;;;;;2.63;1.30;;;;;;;8.68;70.59;94818.13;5127632;27;20051;-76
2022/04/07 05:00:01;;;;;;;1.52;1.27;;;;;;;8.62;70.26;94815.66;5126039;27;20058;-76
2022/04/07 05:02:28;;;;;;;2.15;1.30;;;;;;;8.65;70.24;94814.16;5126997;27;20054;-76
2022/04/07 05:04:54;;;;;;;1.52;1.02;;;;;;;8.68;70.34;94796.41;5126566;27;20054;-76
2022/04/07 05:07:20;;;;;;;1.58;1.23;;;;;;;8.67;69.85;94802.97;5126576;27;20051;-76
2022/04/07 05:09:48;;;;;;;1.10;0.90;;;;;;;8.73;69.50;94790.75;5126563;27;20046;-79
2022/04/07 05:12:15;;;;;;;3.03;1.30;;;;;;;8.77;69.38;94797.03;5109930;27;20066;-79
2022/04/07 05:14:41;;;;;;;3.95;1.50;;;;;;;8.80;69.01;94788.22;5110846;27;20062;-79
2022/04/07 05:17:08;;;;;;;2.38;1.15;;;;;;;8.88;68.94;94790.81;5109074;27;20062;-79
2022/04/07 05:19:35;;;;;;;2.20;1.38;;;;;;;8.77;69.62;94788.91;5110693;27;20062;-79
2022/04/07 05:22:01;;;;;;;33.08;18.20;;;;;;;8.86;68.89;94792.28;5109239;27;20131;-80
2022/04/07 05:24:29;;;;;;;4.50;1.17;;;;;;;8.84;69.39;94794.53;5111579;27;20052;-78
2022/04/07 05:26:56;;;;;;;6.18;3.08;;;;;;;8.88;69.23;94795.44;5125517;27;20062;-80
2022/04/07 05:29:23;;;;;;;1.63;1.00;;;;;;;8.82;69.01;94796.78;5110029;27;20048;-80
2022/04/07 05:31:49;;;;;;;3.58;1.10;;;;;;;8.76;69.84;94801.69;5110614;27;20047;-81
2022/04/07 05:34:16;;;;;;;1.52;1.08;;;;;;;8.86;69.09;94803.13;5109967;27;20055;-78
2022/04/07 05:36:42;;;;;;;1.38;0.90;;;;;;;8.82;69.16;94802.22;5117737;27;20059;-80
2022/04/07 05:39:09;;;;;;;1.80;1.27;;;;;;;8.81;68.75;94795.22;5109204;27;20071;-77
2022/04/07 05:41:35;;;;;;;1.90;1.15;;;;;;;8.78;68.89;94793.22;5119470;27;20050;-79
2022/04/07 05:44:03;;;;;;;2.10;1.17;;;;;;;8.77;68.28;94788.91;5129796;27;20496;-77
2022/04/07 05:46:30;;;;;;;2.30;1.10;;;;;;;8.82;68.41;94791.38;5130806;27;20509;-79
2022/04/07 05:48:56;;;;;;;4.45;1.17;;;;;;;8.82;68.02;94785.94;5129976;27;20043;-79
2022/04/07 05:51:23;;;;;;;3.88;1.23;;;;;;;8.87;67.68;94785.69;5135172;27;20070;-81
2022/04/07 05:53:49;;;;;;;4.43;1.00;;;;;;;8.79;67.25;94779.28;5131799;27;20464;-80
2022/04/07 05:56:16;;;;;;;2.10;1.20;;;;;;;8.82;67.39;94775.09;5130326;27;20051;-83
2022/04/07 05:58:42;;;;;;;1.77;1.02;;;;;;;8.81;67.65;94773.50;5130416;27;20070;-79
2022/04/07 06:01:10;;;;;;;1.40;1.10;;;;;;;8.92;66.93;94773.81;5129939;27;20043;-80
2022/04/07 06:03:36;;;;;;;1.48;1.05;;;;;;;8.91;66.36;94767.59;5130447;27;20050;-80
2022/04/07 06:06:03;;;;;;;2.08;1.20;;;;;;;9.03;66.49;94781.13;5129535;27;20541;-80
2022/04/07 06:08:30;;;;;;;3.15;0.90;;;;;;;8.96;65.08;94767.34;5131009;27;20047;-80
2022/04/07 06:10:56;;;;;;;3.55;1.08;;;;;;;9.05;65.66;94761.78;5126491;27;20040;-79
2022/04/07 06:13:23;;;;;;;3.15;1.00;;;;;;;9.17;65.51;94763.63;5111518;27;20039;-79
2022/04/07 06:15:49;;;;;;;2.90;1.00;;;;;;;9.22;65.03;94756.03;5108953;27;20052;-78
2022/04/07 06:18:17;;;;;;;1.55;1.00;;;;;;;9.27;65.25;94757.69;5108752;27;20047;-77
2022/04/07 06:20:46;;;;;;;2.10;1.20;;;;;;;9.25;64.92;94754.56;5108857;27;20062;-76
2022/04/07 06:23:13;;;;;;;3.35;1.10;;;;;;;9.26;66.07;94762.34;5107678;27;20079;-76
2022/04/07 06:25:39;;;;;;;2.08;0.90;;;;;;;9.40;65.21;94767.38;5108303;27;20047;-76
2022/04/07 06:28:06;;;;;;;3.78;1.10;;;;;;;9.41;65.26;94758.06;5107825;27;20055;-76
2022/04/07 06:30:33;;;;;;;1.88;1.00;;;;;;;9.47;66.00;94762.09;5109072;27;20051;-76
2022/04/07 06:32:59;;;;;;;2.08;1.10;;;;;;;9.35;65.40;94759.47;5107981;27;20055;-76
2022/04/07 06:35:27;;;;;;;4.90;1.10;;;;;;;9.44;65.92;94751.13;5108655;27;20048;-77
2022/04/07 06:37:56;;;;;;;1.10;0.80;;;;;;;9.50;65.58;94753.28;5108131;27;20059;-76
2022/04/07 06:40:23;;;;;;;1.65;1.00;;;;;;;9.48;64.67;94754.75;5108974;27;20051;-79
2022/04/07 06:42:51;;;;;;;1.17;0.93;;;;;;;9.50;65.00;94745.13;5109670;27;20048;-80
2022/04/07 06:45:18;;;;;;;2.30;1.00;;;;;;;9.47;64.39;94747.72;5109368;27;20055;-80
2022/04/07 06:47:44;;;;;;;1.75;1.02;;;;;;;9.50;64.12;94736.97;5111288;27;20050;-81
2022/04/07 06:50:12;;;;;;;3.25;1.15;;;;;;;9.60;64.76;94733.69;5109914;27;20048;-81
2022/04/07 06:52:41;;;;;;;2.65;1.08;;;;;;;9.56;64.83;94738.28;5109284;27;20067;-79
2022/04/07 06:55:09;;;;;;;1.92;1.13;;;;;;;9.71;64.95;94733.16;5108185;27;20055;-79
2022/04/07 06:57:50;;;;;;;1.45;1.00;;;;;;;9.76;64.53;94730.19;5111446;27;20741;-80
2022/04/07 07:00:18;;;;;;;3.15;0.88;;;;;;;9.81;65.17;94721.75;5109676;27;20059;-80
2022/04/07 07:02:46;;;;;;;4.75;1.20;;;;;;;9.91;64.30;94715.78;5110099;27;20559;-80
2022/04/07 07:05:13;;;;;;;1.10;0.90;;;;;;;9.93;62.77;94702.66;5108614;28;20044;-80
2022/04/07 07:07:42;;;;;;;1.27;0.90;;;;;;;10.04;62.33;94714.56;5109476;28;20071;-79
2022/04/07 07:10:09;;;;;;;2.42;0.93;;;;;;;10.12;62.91;94716.28;5109578;28;20049;-79
2022/04/07 07:12:35;;;;;;;4.55;1.08;;;;;;;10.24;62.54;94711.91;5124142;27;20050;-80
2022/04/07 07:15:02;;;;;;;1.38;0.98;;;;;;;10.34;62.33;94703.97;5129247;27;20051;-78
2022/04/07 07:17:33;;;;;;;3.50;1.08;;;;;;;10.53;62.02;94703.19;5130820;27;20504;-80
2022/04/07 07:20:02;;;;;;;1.67;1.25;;;;;;;10.61;60.58;94706.84;5129986;27;20067;-79
2022/04/07 07:22:29;;;;;;;1.65;1.00;;;;;;;10.61;61.17;94704.91;5135188;27;20130;-79
2022/04/07 07:24:56;;;;;;;1.13;1.00;;;;;;;10.95;61.40;94702.44;5132117;27;20055;-78
2022/04/07 07:27:23;;;;;;;1.35;0.80;;;;;;;11.62;57.70;94715.72;5127812;27;20501;-77
2022/04/07 07:29:50;;;;;;;0.98;0.85;;;;;;;12.26;55.14;94703.06;5128134;27;20047;-77
2022/04/07 07:32:16;;;;;;;1.10;0.60;;;;;;;12.83;52.21;94692.09;5128131;27;20043;-79
2022/04/07 07:34:43;;;;;;;1.05;0.50;;;;;;;13.19;51.93;94685.88;5127799;27;20057;-77
2022/04/07 07:37:09;;;;;;;2.20;0.70;;;;;;;13.49;51.58;94685.03;5128137;27;20050;-78
2022/04/07 07:39:36;;;;;;;1.02;0.80;;;;;;;13.98;49.26;94683.84;5127315;27;20406;-78
2022/04/07 07:42:04;;;;;;;2.10;0.60;;;;;;;13.78;49.58;94696.97;5112815;27;20716;-78
2022/04/07 07:44:31;;;;;;;3.05;0.52;;;;;;;13.80;47.99;94684.50;5106907;27;20619;-78
2022/04/07 07:46:58;;;;;;;2.10;0.95;;;;;;;13.64;48.76;94677.72;5107779;27;20047;-79
2022/04/07 07:49:24;;;;;;;0.80;0.47;;;;;;;14.00;48.77;94689.75;5106814;27;20048;-80
2022/04/07 07:51:51;;;;;;;2.97;0.40;;;;;;;14.19;47.15;94688.69;5107633;27;20054;-79
2022/04/07 07:54:18;;;;;;;2.53;0.32;;;;;;;14.06;48.59;94680.78;5107206;27;20054;-80
2022/04/07 07:56:44;;;;;;;2.33;0.50;;;;;;;14.00;48.14;94682.31;5108215;28;20513;-80
2022/04/07 07:59:12;;;;;;;1.85;0.50;;;;;;;14.23;45.99;94673.84;5114817;27;20043;-79
2022/04/07 08:01:38;;;;;;;2.92;0.50;;;;;;;14.15;45.64;94661.31;5108172;27;20054;-79
2022/04/07 08:04:05;;;;;;;0.75;0.40;;;;;;;14.24;44.94;94664.47;5108308;27;20051;-79
2022/04/07 08:06:32;;;;;;;0.80;0.50;;;;;;;14.33;46.04;94662.19;5109517;27;20054;-79
2022/04/07 08:08:58;;;;;;;0.70;0.40;;;;;;;14.56;43.81;94661.13;5110624;27;20051;-81
2022/04/07 08:11:25;;;;;;;1.65;0.60;;;;;;;14.49;44.10;94655.63;5107881;27;20043;-80
2022/04/07 08:13:51;;;;;;;1.92;0.60;;;;;;;14.36;43.72;94661.41;5109196;27;20062;-78
2022/04/07 08:16:19;;;;;;;0.35;0.35;;;;;;;14.39;44.54;94659.06;5109869;28;20048;-80
2022/04/07 08:18:46;;;;;;;1.38;0.80;;;;;;;14.13;44.45;94660.88;5109570;28;20048;-80
2022/04/07 08:21:12;;;;;;;1.73;0.60;;;;;;;14.33;44.96;94651.22;5110183;28;20532;-81
2022/04/07 08:23:39;;;;;;;2.45;0.93;;;;;;;14.46;44.60;94656.34;5109787;28;20048;-81
2022/04/07 08:26:05;;;;;;;3.97;0.55;;;;;;;14.36;42.32;94650.47;5108203;28;20081;-76
2022/04/07 08:28:32;;;;;;;3.28;0.80;;;;;;;13.81;42.46;94669.66;5111898;28;20050;-81
2022/04/07 08:30:58;;;;;;;0.82;0.52;;;;;;;14.05;43.04;94651.06;5111325;28;20059;-80
2022/04/07 08:33:26;;;;;;;2.60;0.63;;;;;;;14.06;43.98;94649.91;5108937;28;20036;-82
2022/04/07 08:35:54;;;;;;;2.75;0.45;;;;;;;14.50;44.11;94665.41;5110161;28;20059;-80
2022/04/07 08:38:21;;;;;;;2.70;0.55;;;;;;;14.74;41.90;94636.56;5108271;28;20050;-80
2022/04/07 08:40:50;;;;;;;1.88;0.55;;;;;;;14.84;42.49;94636.59;5107801;28;20052;-80
2022/04/07 08:43:16;;;;;;;3.47;0.50;;;;;;;14.67;43.17;94623.63;5107981;27;20079;-81
2022/04/07 08:45:44;;;;;;;1.73;0.47;;;;;;;14.59;42.90;94613.81;5112778;27;20054;-79
2022/04/07 08:48:12;;;;;;;3.20;0.55;;;;;;;14.40;42.74;94614.09;5113013;27;20052;-79
2022/04/07 08:50:41;;;;;;;1.73;1.17;;;;;;;14.52;43.28;94616.53;5112347;27;20047;-79
2022/04/07 08:53:08;;;;;;;1.15;0.60;;;;;;;14.74;42.85;94609.16;5114970;27;20048;-78
2022/04/07 08:55:35;;;;;;;4.07;0.68;;;;;;;14.72;42.97;94614.22;5112594;27;20069;-81
2022/04/07 08:58:01;;;;;;;0.82;0.70;;;;;;;14.76;42.15;94604.84;5112951;27;20040;-80
2022/04/07 09:00:28;;;;;;;6.72;0.55;;;;;;;14.93;43.19;94611.59;5103835;27;20047;-79
2022/04/07 09:02:55;;;;;;;2.53;0.60;;;;;;;14.81;41.22;94603.69;5111798;27;20055;-79
2022/04/07 09:05:24;;;;;;;1.75;0.38;;;;;;;15.41;40.92;94605.75;5111247;27;21221;-80
2022/04/07 09:07:52;;;;;;;0.50;0.50;;;;;;;15.61;40.14;94595.19;5111386;27;20132;-77
2022/04/07 09:10:20;;;;;;;1.10;0.50;;;;;;;15.96;39.04;94577.13;5109204;27;20082;-78
2022/04/07 09:12:47;;;;;;;1.65;0.63;;;;;;;15.79;39.52;94584.22;5127718;27;20047;-76
2022/04/07 09:15:15;;;;;;;1.88;0.40;;;;;;;15.36;39.16;94595.19;5132891;27;20055;-81
2022/04/07 09:17:54;;;;;;;3.90;0.70;;;;;;;15.27;38.75;94609.28;5144534;22;20106;-78
2022/04/07 09:20:21;;;;;;;2.97;0.50;;;;;;;15.15;40.23;94579.50;5060052;28;20068;-77
2022/04/07 09:22:57;;;;;;;1.10;0.57;;;;;;;14.93;40.27;94580.63;5073578;28;20055;-78
2022/04/07 09:25:23;;;;;;;1.15;0.40;;;;;;;14.52;41.03;94575.44;5073518;28;20048;-78
2022/04/07 09:27:50;;;;;;;3.30;0.82;;;;;;;14.79;41.40;94573.97;5076385;28;20059;-78
2022/04/07 09:30:17;;;;;;;1.52;0.68;;;;;;;15.12;41.24;94553.63;5080433;28;20044;-79
2022/04/07 09:32:46;;;;;;;1.05;0.40;;;;;;;15.21;41.45;94564.22;5081095;28;20071;-80
2022/04/07 09:35:14;;;;;;;0.82;0.50;;;;;;;15.40;39.88;94580.31;5059963;28;20053;-82
2022/04/07 09:37:43;;;;;;;4.10;1.35;;;;;;;15.28;40.22;94561.47;5067654;28;20051;-79
2022/04/07 09:40:13;;;;;;;2.75;1.30;;;;;;;15.78;39.38;94549.72;5085598;28;20100;-79
2022/04/07 09:42:41;;;;;;;2.90;1.10;;;;;;;15.44;39.77;94554.81;5079736;28;20443;-80
2022/04/07 09:45:12;;;;;;;3.85;0.52;;;;;;;15.31;38.92;94555.22;5084014;28;20151;-81
2022/04/07 09:47:39;;;;;;;4.80;1.30;;;;;;;15.42;39.57;94544.25;5083271;28;20352;-79
2022/04/07 09:50:07;;;;;;;4.80;1.33;;;;;;;15.55;38.78;94530.91;5077445;28;20049;-79
2022/04/07 09:52:34;;;;;;;6.18;1.30;;;;;;;15.44;39.89;94538.34;5075728;28;20456;-77
2022/04/07 09:55:06;;;;;;;2.55;1.17;;;;;;;15.18;39.81;94529.34;5076063;28;20798;-80
2022/04/07 09:57:36;;;;;;;3.78;1.55;;;;;;;15.01;39.65;94524.66;5071420;28;20454;-79
2022/04/07 10:00:07;;;;;;;2.78;1.08;;;;;;;14.92;40.36;94527.00;5055332;28;20111;-79
2022/04/07 10:02:33;;;;;;;3.08;1.90;;;;;;;14.93;40.71;94507.44;5056312;28;20079;-78
2022/04/07 10:05:01;;;;;;;1.83;0.88;;;;;;;14.91;40.64;94495.28;5060106;28;20053;-79
2022/04/07 10:07:29;;;;;;;4.50;1.17;;;;;;;14.67;40.82;94489.41;5060393;28;20049;-79
2022/04/07 10:09:56;;;;;;;3.75;1.30;;;;;;;14.62;42.10;94498.00;5076939;28;20048;-81
2022/04/07 10:12:23;;;;;;;1.45;0.85;;;;;;;14.84;43.28;94483.16;5081872;28;20127;-81
2022/04/07 10:14:53;;;;;;;1.65;0.60;;;;;;;15.46;39.48;94470.97;5082111;28;20047;-80
2022/04/07 10:17:20;;;;;;;7.38;1.40;;;;;;;15.34;40.44;94472.16;5069519;28;20053;-80
2022/04/07 10:19:52;;;;;;;2.05;0.90;;;;;;;15.52;42.09;94477.63;5058223;28;20052;-78
2022/04/07 10:22:54;;;;;;;1.80;1.13;;;;;;;15.39;40.41;94469.00;5056615;28;20749;-79
2022/04/07 10:25:23;;;;;;;3.33;1.27;;;;;;;15.29;39.58;94467.06;5020491;28;20700;-79
2022/04/07 10:27:52;;;;;;;4.97;1.38;;;;;;;14.90;39.92;94461.63;5053311;28;20059;-79
2022/04/07 10:30:21;;;;;;;2.95;1.30;;;;;;;14.88;42.26;94470.25;5052531;28;20060;-79
2022/04/07 10:32:49;;;;;;;2.40;1.23;;;;;;;14.77;42.08;94468.66;5054485;28;20052;-78
2022/04/07 10:35:30;;;;;;;2.80;1.40;;;;;;;14.68;41.97;94463.56;5055096;28;20059;-78
2022/04/07 10:37:57;;;;;;;5.28;1.73;;;;;;;14.64;43.01;94462.00;5055035;28;20384;-78
2022/04/07 10:40:44;;;;;;;1.77;0.90;;;;;;;14.50;41.95;94446.31;5054350;28;20055;-77
2022/04/07 10:43:18;;;;;;;2.10;1.08;;;;;;;14.83;42.19;94426.78;5031178;28;20045;-79
2022/04/07 10:45:48;;;;;;;3.00;1.35;;;;;;;15.01;40.03;94426.75;5033386;28;20046;-79
2022/04/07 10:48:24;;;;;;;2.80;1.30;;;;;;;15.32;40.22;94408.69;5032064;28;20053;-78
2022/04/07 10:50:53;;;;;;;2.78;1.60;;;;;;;15.51;40.53;94396.50;5031411;28;20443;-78
2022/04/07 10:53:21;;;;;;;2.08;1.13;;;;;;;15.65;39.39;94414.91;5032300;28;20052;-78
2022/04/07 10:55:58;;;;;;;3.08;1.20;;;;;;;15.54;40.21;94386.69;5031411;28;20052;-78
2022/04/07 10:58:50;;;;;;;3.22;0.98;;;;;;;15.64;38.40;94391.38;5031900;28;20056;-78
2022/04/07 11:01:51;;;;;;;3.55;1.42;;;;;;;15.51;38.59;94371.81;5023390;28;20064;-78
2022/04/07 11:04:47;;;;;;;3.90;1.80;;;;;;;15.18;38.90;94367.59;5027404;28;20129;-79
2022/04/07 11:07:17;;;;;;;4.10;2.15;;;;;;;15.08;40.09;94409.53;5038039;28;20064;-79
2022/04/07 11:10:11;;;;;;;3.50;1.33;;;;;;;14.97;39.13;94359.44;5045320;28;20076;-78
2022/04/07 11:12:43;;;;;;;5.07;1.15;;;;;;;14.76;40.33;94360.22;5077493;28;20102;-78
2022/04/07 11:15:32;;;;;;;2.67;1.00;;;;;;;14.68;38.89;94343.03;5072239;28;20098;-78
2022/04/07 11:18:06;;;;;;;4.65;1.40;;;;;;;14.69;40.10;94354.78;5072576;28;20049;-79
2022/04/07 11:20:34;;;;;;;2.15;1.10;;;;;;;14.73;40.58;94345.38;5073089;28;20040;-77
2022/04/07 11:23:04;;;;;;;4.43;1.80;;;;;;;14.58;40.17;94341.09;5053468;28;20063;-78
2022/04/07 11:25:33;;;;;;;5.18;1.23;;;;;;;14.58;40.44;94343.81;5071390;28;20094;-79
2022/04/07 11:28:13;;;;;;;4.18;1.40;;;;;;;14.63;40.24;94337.94;5071465;28;20040;-78
2022/04/07 11:30:42;;;;;;;2.95;1.65;;;;;;;14.59;41.32;94334.44;5070290;28;20052;-79
2022/04/07 11:33:36;;;;;;;1.88;0.85;;;;;;;14.52;40.36;94334.44;5077157;28;20060;-80
2022/04/07 11:36:29;;;;;;;1.95;0.63;;;;;;;14.65;40.99;94321.91;5081857;28;20044;-79
2022/04/07 11:39:05;;;;;;;4.80;1.00;;;;;;;14.74;42.21;94318.75;5081632;28;20079;-80
2022/04/07 11:41:41;;;;;;;1.52;0.50;;;;;;;14.77;41.67;94307.81;5086446;28;20107;-82